Flight Track Log - Related Links

Times and Time Zones

All times are in EDT time to prevent confusion due to time zone crossing. See the SLI2633 flight status page for this flight to view local times or setup timezone preferences in your user account.

Time Position Orientation Groundspeed Altitude Reporting Facility
EDT Latitude Longitude Course Direction KTS MPH feet Rate Location/Type
Mon 12:31:15 PM 21.6908 -102.2962 126° Southeast  Level Estimated
Mon 12:32:15 PM 21.6319 -102.2097 126° Southeast  Level Estimated
Mon 12:33:15 PM 21.5730 -102.1232 126° Southeast  Level Estimated
Mon 12:34:15 PM 21.5140 -102.0368 126° Southeast  Level Estimated
Mon 12:35:15 PM 21.4550 -101.9504 126° Southeast  Level Estimated
Mon 12:36:15 PM 21.3960 -101.8641 126° Southeast  Level Estimated
Mon 12:37:15 PM 21.3369 -101.7779 126° Southeast  Level Estimated
Mon 12:38:15 PM 21.2778 -101.6918 126° Southeast  Level Estimated
Mon 12:39:15 PM 21.2186 -101.6057 126° Southeast  Level Estimated
Mon 12:40:15 PM 21.1594 -101.5197 126° Southeast  Level Estimated
Mon 12:41:15 PM 21.1001 -101.4338 126° Southeast  Level Estimated
Mon 12:42:15 PM 21.0408 -101.3479 127° Southeast  Level Estimated
Mon 12:43:15 PM 20.9815 -101.2621 127° Southeast  Level Estimated
Mon 12:44:15 PM 20.9221 -101.1764 127° Southeast  Level Estimated
Mon 12:45:15 PM 20.8626 -101.0908 127° Southeast  Level Estimated
Mon 12:46:15 PM 20.8032 -101.0052 127° Southeast  Level Estimated
Mon 12:47:15 PM 20.7437 -100.9196 127° Southeast  Level Estimated
Mon 12:48:15 PM 20.6841 -100.8342 127° Southeast  Level Estimated
Mon 12:49:15 PM 20.6245 -100.7488 127° Southeast  Level Estimated
Mon 12:50:15 PM 20.5648 -100.6635 127° Southeast  Level Estimated
Mon 12:51:15 PM 20.5052 -100.5782 127° Southeast  Level Estimated
Mon 12:52:15 PM 20.4454 -100.4930 127° Southeast  Level Estimated
Mon 12:53:15 PM 20.3857 -100.4079 127° Southeast  Level Estimated
Mon 12:54:15 PM 20.3258 -100.3228 127° Southeast  Level Estimated
Mon 12:55:15 PM 20.2660 -100.2378 127° Southeast  Level Estimated
Mon 12:56:15 PM 20.2061 -100.1529 127° Southeast  Level Estimated
Mon 12:57:15 PM 20.1462 -100.0681 127° Southeast  Level Estimated
Mon 12:58:15 PM 20.0862 -99.9833 127° Southeast  Level Estimated
Mon 12:59:15 PM 20.0262 -99.8985 127° Southeast  Level Estimated
Mon 01:00:15 PM 19.9661 -99.8139 127° Southeast  Level Estimated
Mon 01:01:15 PM 19.9060 -99.7293 127° Southeast  Level Estimated
Mon 01:02:15 PM 19.8459 -99.6447 127° Southeast  Level Estimated
Mon 01:03:15 PM 19.7857 -99.5603 127° Southeast  Level Estimated
Mon 01:04:15 PM 19.7255 -99.4759 127° Southeast  Level Estimated
Mon 01:05:15 PM 19.6653 -99.3915 127° Southeast  Level Estimated
Mon 01:06:15 PM 19.6050 -99.3072 127° Southeast  Level Estimated
Mon 01:07:15 PM 19.5446 -99.2230 127° Southeast  Level Estimated
Mon 01:08:15 PM 19.4843 -99.1389 127° Southeast  Level Estimated
Mon 01:09:15 PM 19.4239 -99.0548 307° West  Level Estimated
Mon 01:10:15 PM 19.4843 -99.1389 127° Southeast  Level Estimated
Mon 01:11:15 PM 19.4239 -99.0548 307° West  Level Estimated
Mon 01:12:15 PM 19.4843 -99.1389 127° Southeast  Level Estimated
Mon 01:13:15 PM 19.4239 -99.0548 307° West  Level Estimated
Mon 01:14:15 PM 19.4843 -99.1389 307° West  Level Estimated

Login

Don't have an account? Register now (free) for customized features, flight alerts, and more!